Ault, Colorado
Current Conditions -  °F | °C
As of 10:55 PM on Saturday 22 Nov 2014 (Local Time) from KGXY Reporting Station
Clear Clear  
Wind Chill: 30°   Ceiling: Unl
Heat Index: 34°   Visibility: 10mi
Dew Point: 21°   Wind: 5mph
Humidity: 60%   Direction: 320°NW
Pressure: 29.58"   Gusts: NA
Location:  40.58°N, 104.73°W
Report Text: KGXY 230555Z AUTO 32004KT 10SM CLR 01/M06 A2958 RMK AO1 10050 21010 54000
Loading
Personal Weather Stations






























Interactive Weather Map New forecast layout! Learn more

10-Day Weather Forecast

Advertisements
Track Severe Weather on mobile